
<gpx xmlns="http://www.topografix.com/GPX/1/1" xmlns:gpxx="http://www.garmin.com/xmlschemas/GpxExtensions/v3" xmlns:xsi="http://www.w3.org/2001/XMLSchema-instance" version="1.1" creator="Adze - https://getadze.com/" xsi:schemaLocation="http://www.topografix.com/GPX/1/1 http://www.topografix.com/GPX/1/1/gpx.xsd http://www.garmin.com/xmlschemas/GpxExtensions/v3 http://www.garmin.com/xmlschemas/GpxExtensionsv3.xsd">
    <metadata>
        <name>Untitled Document</name>
        <link href="http://www.garmin.com"></link>
        <time>2018-02-27T06:20:24.988Z</time>
    </metadata>
    <wpt lon="101.052599" lat="13.215369">
        <ele>89.000000</ele>
        <name>Khao Kheow Car Park</name>
        <cmt>26-MAY-12 12:48:53</cmt>
        <desc>26-MAY-12 12:48:53</desc>
        <sym>Parking Area</sym>
        <extensions>
            <gpxx:WaypointExtension xmlns:gpxx="http://www.garmin.com/xmlschemas/GpxExtensions/v3">
                <gpxx:DisplayMode>SymbolOnly</gpxx:DisplayMode>
            </gpxx:WaypointExtension>
        </extensions>
    </wpt>
    <wpt lon="101.012762" lat="13.256134">
        <ele>66.000000</ele>
        <name>Water Sun</name>
        <cmt>27-MAY-12 11:12:13</cmt>
        <desc>27-MAY-12 11:12:13</desc>
        <sym>Drinking Water</sym>
        <extensions>
            <gpxx:WaypointExtension xmlns:gpxx="http://www.garmin.com/xmlschemas/GpxExtensions/v3">
                <gpxx:DisplayMode>SymbolOnly</gpxx:DisplayMode>
            </gpxx:WaypointExtension>
        </extensions>
    </wpt>
    <trk>
        <name>Sun</name>
        <extensions>
            <gpxx:TrackExtension xmlns:gpxx="http://www.garmin.com/xmlschemas/GpxExtensions/v3">
                <gpxx:DisplayColor>Green</gpxx:DisplayColor>
            </gpxx:TrackExtension>
        </extensions>
        <trkseg>
            <trkpt lon="101.052529" lat="13.215312">
                <ele>104.920000</ele>
                <time>2012-05-27T03:10:43Z</time>
            </trkpt>
            <trkpt lon="101.052442" lat="13.215139">
                <ele>104.920000</ele>
                <time>2012-05-27T03:11:08Z</time>
            </trkpt>
            <trkpt lon="101.051275" lat="13.215223">
                <ele>107.810000</ele>
                <time>2012-05-27T03:11:35Z</time>
            </trkpt>
            <trkpt lon="101.051240" lat="13.215229">
                <ele>103.000000</ele>
                <time>2012-05-27T03:11:37Z</time>
            </trkpt>
            <trkpt lon="101.051437" lat="13.215862">
                <ele>99.630000</ele>
                <time>2012-05-27T03:12:06Z</time>
            </trkpt>
            <trkpt lon="101.051527" lat="13.216477">
                <ele>93.390000</ele>
                <time>2012-05-27T03:12:16Z</time>
            </trkpt>
            <trkpt lon="101.051591" lat="13.216618">
                <ele>92.420000</ele>
                <time>2012-05-27T03:12:20Z</time>
            </trkpt>
            <trkpt lon="101.052090" lat="13.216827">
                <ele>90.980000</ele>
                <time>2012-05-27T03:12:40Z</time>
            </trkpt>
            <trkpt lon="101.052023" lat="13.217065">
                <ele>91.940000</ele>
                <time>2012-05-27T03:12:53Z</time>
            </trkpt>
            <trkpt lon="101.051420" lat="13.218204">
                <ele>83.770000</ele>
                <time>2012-05-27T03:13:35Z</time>
            </trkpt>
            <trkpt lon="101.050659" lat="13.218492">
                <ele>89.060000</ele>
                <time>2012-05-27T03:14:18Z</time>
            </trkpt>
            <trkpt lon="101.050632" lat="13.218840">
                <ele>91.940000</ele>
                <time>2012-05-27T03:14:40Z</time>
            </trkpt>
            <trkpt lon="101.050171" lat="13.219059">
                <ele>92.900000</ele>
                <time>2012-05-27T03:15:04Z</time>
            </trkpt>
            <trkpt lon="101.049435" lat="13.218814">
                <ele>86.660000</ele>
                <time>2012-05-27T03:15:28Z</time>
            </trkpt>
            <trkpt lon="101.048828" lat="13.219221">
                <ele>91.460000</ele>
                <time>2012-05-27T03:15:59Z</time>
            </trkpt>
            <trkpt lon="101.048502" lat="13.219474">
                <ele>91.460000</ele>
                <time>2012-05-27T03:16:17Z</time>
            </trkpt>
            <trkpt lon="101.047921" lat="13.219316">
                <ele>85.690000</ele>
                <time>2012-05-27T03:16:37Z</time>
            </trkpt>
            <trkpt lon="101.047707" lat="13.219722">
                <ele>89.540000</ele>
                <time>2012-05-27T03:17:55Z</time>
            </trkpt>
            <trkpt lon="101.047264" lat="13.219891">
                <ele>93.390000</ele>
                <time>2012-05-27T03:19:08Z</time>
            </trkpt>
            <trkpt lon="101.047114" lat="13.220716">
                <ele>99.150000</ele>
                <time>2012-05-27T03:20:25Z</time>
            </trkpt>
            <trkpt lon="101.047025" lat="13.220919">
                <ele>98.190000</ele>
                <time>2012-05-27T03:20:44Z</time>
            </trkpt>
            <trkpt lon="101.046593" lat="13.221334">
                <ele>88.100000</ele>
                <time>2012-05-27T03:21:10Z</time>
            </trkpt>
            <trkpt lon="101.046226" lat="13.221302">
                <ele>84.250000</ele>
                <time>2012-05-27T03:21:22Z</time>
            </trkpt>
            <trkpt lon="101.045900" lat="13.221090">
                <ele>82.810000</ele>
                <time>2012-05-27T03:21:37Z</time>
            </trkpt>
            <trkpt lon="101.045531" lat="13.221197">
                <ele>81.370000</ele>
                <time>2012-05-27T03:21:56Z</time>
            </trkpt>
            <trkpt lon="101.045106" lat="13.221965">
                <ele>89.540000</ele>
                <time>2012-05-27T03:22:40Z</time>
            </trkpt>
            <trkpt lon="101.044374" lat="13.221744">
                <ele>86.660000</ele>
                <time>2012-05-27T03:23:04Z</time>
            </trkpt>
            <trkpt lon="101.043256" lat="13.221988">
                <ele>77.042847</ele>
                <time>2012-05-27T03:13:29Z</time>
            </trkpt>
            <trkpt lon="101.042939" lat="13.224510">
                <ele>97.230469</ele>
                <time>2012-05-27T03:15:12Z</time>
            </trkpt>
            <trkpt lon="101.042407" lat="13.225048">
                <ele>90.981934</ele>
                <time>2012-05-27T03:15:43Z</time>
            </trkpt>
            <trkpt lon="101.042081" lat="13.226024">
                <ele>77.523438</ele>
                <time>2012-05-27T03:16:35Z</time>
            </trkpt>
            <trkpt lon="101.042083" lat="13.226190">
                <ele>78.965454</ele>
                <time>2012-05-27T03:17:25Z</time>
            </trkpt>
            <trkpt lon="101.042238" lat="13.226612">
                <ele>75.120239</ele>
                <time>2012-05-27T03:19:16Z</time>
            </trkpt>
            <trkpt lon="101.042772" lat="13.227651">
                <ele>78.484741</ele>
                <time>2012-05-27T03:20:17Z</time>
            </trkpt>
            <trkpt lon="101.042766" lat="13.227647">
                <ele>80.407471</ele>
                <time>2012-05-27T03:20:36Z</time>
            </trkpt>
            <trkpt lon="101.042486" lat="13.227778">
                <ele>81.368774</ele>
                <time>2012-05-27T03:20:51Z</time>
            </trkpt>
            <trkpt lon="101.042042" lat="13.228083">
                <ele>85.213989</ele>
                <time>2012-05-27T03:21:09Z</time>
            </trkpt>
            <trkpt lon="101.041572" lat="13.228472">
                <ele>85.213989</ele>
                <time>2012-05-27T03:21:27Z</time>
            </trkpt>
            <trkpt lon="101.040054" lat="13.228969">
                <ele>82.810791</ele>
                <time>2012-05-27T03:22:05Z</time>
            </trkpt>
            <trkpt lon="101.039245" lat="13.229323">
                <ele>83.771973</ele>
                <time>2012-05-27T03:22:29Z</time>
            </trkpt>
            <trkpt lon="101.038065" lat="13.229845">
                <ele>80.888184</ele>
                <time>2012-05-27T03:23:04Z</time>
            </trkpt>
            <trkpt lon="101.037683" lat="13.230003">
                <ele>80.888184</ele>
                <time>2012-05-27T03:23:32Z</time>
            </trkpt>
            <trkpt lon="101.038900" lat="13.229520">
                <ele>84.252685</ele>
                <time>2012-05-27T03:25:04Z</time>
            </trkpt>
            <trkpt lon="101.034373" lat="13.231583">
                <ele>74.639526</ele>
                <time>2012-05-27T03:26:38Z</time>
            </trkpt>
            <trkpt lon="101.034107" lat="13.232008">
                <ele>74.639526</ele>
                <time>2012-05-27T03:26:51Z</time>
            </trkpt>
            <trkpt lon="101.034187" lat="13.232214">
                <ele>74.158813</ele>
                <time>2012-05-27T03:26:56Z</time>
            </trkpt>
            <trkpt lon="101.035200" lat="13.233639">
                <ele>75.600830</ele>
                <time>2012-05-27T03:27:36Z</time>
            </trkpt>
            <trkpt lon="101.035601" lat="13.233584">
                <ele>76.081421</ele>
                <time>2012-05-27T03:27:48Z</time>
            </trkpt>
            <trkpt lon="101.035794" lat="13.233725">
                <ele>79.446045</ele>
                <time>2012-05-27T03:27:58Z</time>
            </trkpt>
            <trkpt lon="101.036563" lat="13.235561">
                <ele>83.291382</ele>
                <time>2012-05-27T03:28:54Z</time>
            </trkpt>
            <trkpt lon="101.036696" lat="13.235927">
                <ele>82.330078</ele>
                <time>2012-05-27T03:29:08Z</time>
            </trkpt>
            <trkpt lon="101.035501" lat="13.236056">
                <ele>81.849365</ele>
                <time>2012-05-27T03:29:48Z</time>
            </trkpt>
            <trkpt lon="101.035027" lat="13.235721">
                <ele>81.849365</ele>
                <time>2012-05-27T03:45:27Z</time>
            </trkpt>
            <trkpt lon="101.034779" lat="13.236236">
                <ele>77.523438</ele>
                <time>2012-05-27T03:45:43Z</time>
            </trkpt>
            <trkpt lon="101.035272" lat="13.236879">
                <ele>76.081421</ele>
                <time>2012-05-27T03:46:03Z</time>
            </trkpt>
            <trkpt lon="101.035777" lat="13.237209">
                <ele>81.368774</ele>
                <time>2012-05-27T03:46:23Z</time>
            </trkpt>
            <trkpt lon="101.035789" lat="13.237244">
                <ele>80.888184</ele>
                <time>2012-05-27T03:46:25Z</time>
            </trkpt>
            <trkpt lon="101.035603" lat="13.237974">
                <ele>82.810791</ele>
                <time>2012-05-27T03:47:11Z</time>
            </trkpt>
            <trkpt lon="101.034977" lat="13.237996">
                <ele>83.291382</ele>
                <time>2012-05-27T03:47:25Z</time>
            </trkpt>
            <trkpt lon="101.032860" lat="13.237075">
                <ele>75.600830</ele>
                <time>2012-05-27T03:47:59Z</time>
            </trkpt>
            <trkpt lon="101.029843" lat="13.237517">
                <ele>70.313477</ele>
                <time>2012-05-27T03:48:40Z</time>
            </trkpt>
            <trkpt lon="101.029437" lat="13.238561">
                <ele>70.794190</ele>
                <time>2012-05-27T03:49:11Z</time>
            </trkpt>
            <trkpt lon="101.028891" lat="13.239457">
                <ele>65.987671</ele>
                <time>2012-05-27T03:49:27Z</time>
            </trkpt>
            <trkpt lon="101.028366" lat="13.240689">
                <ele>61.661743</ele>
                <time>2012-05-27T03:49:45Z</time>
            </trkpt>
            <trkpt lon="101.028333" lat="13.241142">
                <ele>58.297119</ele>
                <time>2012-05-27T03:49:52Z</time>
            </trkpt>
            <trkpt lon="101.028554" lat="13.241525">
                <ele>57.816528</ele>
                <time>2012-05-27T03:50:03Z</time>
            </trkpt>
            <trkpt lon="101.029221" lat="13.242087">
                <ele>63.103638</ele>
                <time>2012-05-27T03:50:31Z</time>
            </trkpt>
            <trkpt lon="101.029136" lat="13.244033">
                <ele>65.987671</ele>
                <time>2012-05-27T03:51:36Z</time>
            </trkpt>
            <trkpt lon="101.029549" lat="13.245492">
                <ele>72.716919</ele>
                <time>2012-05-27T03:52:19Z</time>
            </trkpt>
            <trkpt lon="101.030896" lat="13.245597">
                <ele>73.678223</ele>
                <time>2012-05-27T03:52:51Z</time>
            </trkpt>
            <trkpt lon="101.030762" lat="13.247931">
                <ele>72.236206</ele>
                <time>2012-05-27T03:53:42Z</time>
            </trkpt>
            <trkpt lon="101.031649" lat="13.247998">
                <ele>75.120239</ele>
                <time>2012-05-27T03:54:05Z</time>
            </trkpt>
            <trkpt lon="101.032418" lat="13.248585">
                <ele>78.965454</ele>
                <time>2012-05-27T03:54:35Z</time>
            </trkpt>
            <trkpt lon="101.032231" lat="13.248878">
                <ele>78.965454</ele>
                <time>2012-05-27T03:54:46Z</time>
            </trkpt>
            <trkpt lon="101.031632" lat="13.249252">
                <ele>78.004028</ele>
                <time>2012-05-27T03:55:07Z</time>
            </trkpt>
            <trkpt lon="101.031473" lat="13.249513">
                <ele>76.562134</ele>
                <time>2012-05-27T03:55:20Z</time>
            </trkpt>
            <trkpt lon="101.031593" lat="13.250222">
                <ele>77.523438</ele>
                <time>2012-05-27T03:55:52Z</time>
            </trkpt>
            <trkpt lon="101.031450" lat="13.250507">
                <ele>79.926636</ele>
                <time>2012-05-27T03:56:07Z</time>
            </trkpt>
            <trkpt lon="101.031342" lat="13.251251">
                <ele>80.888184</ele>
                <time>2012-05-27T03:56:44Z</time>
            </trkpt>
            <trkpt lon="101.031461" lat="13.251695">
                <ele>82.330078</ele>
                <time>2012-05-27T03:57:15Z</time>
            </trkpt>
            <trkpt lon="101.031252" lat="13.252036">
                <ele>87.136597</ele>
                <time>2012-05-27T03:57:37Z</time>
            </trkpt>
            <trkpt lon="101.030890" lat="13.252323">
                <ele>89.539917</ele>
                <time>2012-05-27T03:58:18Z</time>
            </trkpt>
            <trkpt lon="101.030732" lat="13.252824">
                <ele>92.423950</ele>
                <time>2012-05-27T03:59:12Z</time>
            </trkpt>
            <trkpt lon="101.030507" lat="13.253725">
                <ele>94.346558</ele>
                <time>2012-05-27T04:00:56Z</time>
            </trkpt>
            <trkpt lon="101.029764" lat="13.253918">
                <ele>86.656006</ele>
                <time>2012-05-27T04:01:34Z</time>
            </trkpt>
            <trkpt lon="101.029198" lat="13.254244">
                <ele>80.888184</ele>
                <time>2012-05-27T04:01:59Z</time>
            </trkpt>
            <trkpt lon="101.029121" lat="13.254434">
                <ele>81.849365</ele>
                <time>2012-05-27T04:02:34Z</time>
            </trkpt>
            <trkpt lon="101.029631" lat="13.255280">
                <ele>81.368774</ele>
                <time>2012-05-27T04:03:58Z</time>
            </trkpt>
            <trkpt lon="101.029423" lat="13.255889">
                <ele>81.849365</ele>
                <time>2012-05-27T04:04:26Z</time>
            </trkpt>
            <trkpt lon="101.028625" lat="13.255899">
                <ele>80.407471</ele>
                <time>2012-05-27T04:04:51Z</time>
            </trkpt>
            <trkpt lon="101.028389" lat="13.256078">
                <ele>80.888184</ele>
                <time>2012-05-27T04:05:01Z</time>
            </trkpt>
            <trkpt lon="101.028313" lat="13.256863">
                <ele>77.523438</ele>
                <time>2012-05-27T04:05:20Z</time>
            </trkpt>
            <trkpt lon="101.028072" lat="13.257012">
                <ele>78.004028</ele>
                <time>2012-05-27T04:05:32Z</time>
            </trkpt>
            <trkpt lon="101.027551" lat="13.257019">
                <ele>81.368774</ele>
                <time>2012-05-27T04:05:49Z</time>
            </trkpt>
            <trkpt lon="101.026369" lat="13.256742">
                <ele>80.888184</ele>
                <time>2012-05-27T04:06:21Z</time>
            </trkpt>
            <trkpt lon="101.025672" lat="13.257265">
                <ele>81.849365</ele>
                <time>2012-05-27T04:06:52Z</time>
            </trkpt>
            <trkpt lon="101.024209" lat="13.256883">
                <ele>76.562134</ele>
                <time>2012-05-27T04:07:36Z</time>
            </trkpt>
            <trkpt lon="101.023791" lat="13.257054">
                <ele>75.120239</ele>
                <time>2012-05-27T04:07:49Z</time>
            </trkpt>
            <trkpt lon="101.023522" lat="13.257317">
                <ele>75.600830</ele>
                <time>2012-05-27T04:08:08Z</time>
            </trkpt>
            <trkpt lon="101.023347" lat="13.257904">
                <ele>79.926636</ele>
                <time>2012-05-27T04:08:31Z</time>
            </trkpt>
            <trkpt lon="101.022876" lat="13.258274">
                <ele>79.446045</ele>
                <time>2012-05-27T04:08:48Z</time>
            </trkpt>
            <trkpt lon="101.022626" lat="13.258409">
                <ele>78.965454</ele>
                <time>2012-05-27T04:08:54Z</time>
            </trkpt>
            <trkpt lon="101.021672" lat="13.258467">
                <ele>78.004028</ele>
                <time>2012-05-27T04:09:11Z</time>
            </trkpt>
            <trkpt lon="101.020969" lat="13.258225">
                <ele>77.042847</ele>
                <time>2012-05-27T04:09:24Z</time>
            </trkpt>
            <trkpt lon="101.018930" lat="13.258011">
                <ele>74.158813</ele>
                <time>2012-05-27T04:09:59Z</time>
            </trkpt>
            <trkpt lon="101.016559" lat="13.257216">
                <ele>72.236206</ele>
                <time>2012-05-27T04:10:42Z</time>
            </trkpt>
            <trkpt lon="101.016277" lat="13.256864">
                <ele>71.755493</ele>
                <time>2012-05-27T04:10:50Z</time>
            </trkpt>
            <trkpt lon="101.016053" lat="13.256767">
                <ele>70.794190</ele>
                <time>2012-05-27T04:10:54Z</time>
            </trkpt>
            <trkpt lon="101.013110" lat="13.257076">
                <ele>65.026367</ele>
                <time>2012-05-27T04:11:48Z</time>
            </trkpt>
            <trkpt lon="101.012921" lat="13.256836">
                <ele>65.026367</ele>
                <time>2012-05-27T04:11:54Z</time>
            </trkpt>
            <trkpt lon="101.012739" lat="13.256131">
                <ele>72.236206</ele>
                <time>2012-05-27T04:19:52Z</time>
            </trkpt>
            <trkpt lon="101.009111" lat="13.254883">
                <ele>57.335815</ele>
                <time>2012-05-27T04:21:53Z</time>
            </trkpt>
            <trkpt lon="101.009024" lat="13.254730">
                <ele>56.855103</ele>
                <time>2012-05-27T04:21:58Z</time>
            </trkpt>
            <trkpt lon="101.009257" lat="13.253902">
                <ele>53.971191</ele>
                <time>2012-05-27T04:22:18Z</time>
            </trkpt>
            <trkpt lon="101.009069" lat="13.253782">
                <ele>56.374512</ele>
                <time>2012-05-27T04:22:36Z</time>
            </trkpt>
            <trkpt lon="101.009066" lat="13.252586">
                <ele>52.529175</ele>
                <time>2012-05-27T04:23:16Z</time>
            </trkpt>
            <trkpt lon="101.010822" lat="13.250117">
                <ele>52.529175</ele>
                <time>2012-05-27T04:24:18Z</time>
            </trkpt>
            <trkpt lon="101.011471" lat="13.250085">
                <ele>54.451782</ele>
                <time>2012-05-27T04:24:33Z</time>
            </trkpt>
            <trkpt lon="101.011602" lat="13.249871">
                <ele>54.932373</ele>
                <time>2012-05-27T04:24:40Z</time>
            </trkpt>
            <trkpt lon="101.012226" lat="13.248970">
                <ele>53.971191</ele>
                <time>2012-05-27T04:25:03Z</time>
            </trkpt>
            <trkpt lon="101.013019" lat="13.248265">
                <ele>56.855103</ele>
                <time>2012-05-27T04:25:26Z</time>
            </trkpt>
            <trkpt lon="101.014554" lat="13.247803">
                <ele>61.181030</ele>
                <time>2012-05-27T04:26:01Z</time>
            </trkpt>
            <trkpt lon="101.016503" lat="13.247297">
                <ele>62.622925</ele>
                <time>2012-05-27T04:26:56Z</time>
            </trkpt>
            <trkpt lon="101.017674" lat="13.247177">
                <ele>65.987671</ele>
                <time>2012-05-27T04:27:27Z</time>
            </trkpt>
            <trkpt lon="101.017695" lat="13.247001">
                <ele>71.274902</ele>
                <time>2012-05-27T04:27:33Z</time>
            </trkpt>
            <trkpt lon="101.017591" lat="13.246896">
                <ele>71.755493</ele>
                <time>2012-05-27T04:27:38Z</time>
            </trkpt>
            <trkpt lon="101.017207" lat="13.246331">
                <ele>68.871582</ele>
                <time>2012-05-27T04:27:57Z</time>
            </trkpt>
            <trkpt lon="101.017992" lat="13.245167">
                <ele>65.507080</ele>
                <time>2012-05-27T04:28:36Z</time>
            </trkpt>
            <trkpt lon="101.018297" lat="13.244842">
                <ele>62.142334</ele>
                <time>2012-05-27T04:28:52Z</time>
            </trkpt>
            <trkpt lon="101.018955" lat="13.244426">
                <ele>61.661743</ele>
                <time>2012-05-27T04:29:23Z</time>
            </trkpt>
            <trkpt lon="101.021377" lat="13.244899">
                <ele>66.468262</ele>
                <time>2012-05-27T04:30:48Z</time>
            </trkpt>
            <trkpt lon="101.021551" lat="13.245241">
                <ele>66.468262</ele>
                <time>2012-05-27T04:31:02Z</time>
            </trkpt>
            <trkpt lon="101.021866" lat="13.245584">
                <ele>65.507080</ele>
                <time>2012-05-27T04:31:16Z</time>
            </trkpt>
            <trkpt lon="101.022296" lat="13.245587">
                <ele>63.584351</ele>
                <time>2012-05-27T04:31:31Z</time>
            </trkpt>
            <trkpt lon="101.022171" lat="13.243624">
                <ele>60.700317</ele>
                <time>2012-05-27T04:32:27Z</time>
            </trkpt>
            <trkpt lon="101.022262" lat="13.242739">
                <ele>59.258423</ele>
                <time>2012-05-27T04:32:46Z</time>
            </trkpt>
            <trkpt lon="101.022314" lat="13.241596">
                <ele>56.374512</ele>
                <time>2012-05-27T04:33:10Z</time>
            </trkpt>
            <trkpt lon="101.021529" lat="13.237350">
                <ele>53.490479</ele>
                <time>2012-05-27T04:34:34Z</time>
            </trkpt>
            <trkpt lon="101.021345" lat="13.237261">
                <ele>53.490479</ele>
                <time>2012-05-27T04:34:39Z</time>
            </trkpt>
            <trkpt lon="101.021195" lat="13.236988">
                <ele>53.490479</ele>
                <time>2012-05-27T04:34:47Z</time>
            </trkpt>
            <trkpt lon="101.022236" lat="13.234868">
                <ele>50.606567</ele>
                <time>2012-05-27T04:35:34Z</time>
            </trkpt>
            <trkpt lon="101.021889" lat="13.234323">
                <ele>50.606567</ele>
                <time>2012-05-27T04:35:46Z</time>
            </trkpt>
            <trkpt lon="101.021741" lat="13.233636">
                <ele>51.087158</ele>
                <time>2012-05-27T04:36:05Z</time>
            </trkpt>
            <trkpt lon="101.022010" lat="13.233594">
                <ele>53.971191</ele>
                <time>2012-05-27T04:36:24Z</time>
            </trkpt>
            <trkpt lon="101.022937" lat="13.233812">
                <ele>62.142334</ele>
                <time>2012-05-27T04:39:55Z</time>
            </trkpt>
            <trkpt lon="101.021844" lat="13.233561">
                <ele>58.297119</ele>
                <time>2012-05-27T04:40:40Z</time>
            </trkpt>
            <trkpt lon="101.021647" lat="13.232541">
                <ele>54.451782</ele>
                <time>2012-05-27T04:41:17Z</time>
            </trkpt>
            <trkpt lon="101.020393" lat="13.230792">
                <ele>54.451782</ele>
                <time>2012-05-27T04:42:12Z</time>
            </trkpt>
            <trkpt lon="101.019856" lat="13.230334">
                <ele>53.009766</ele>
                <time>2012-05-27T04:42:27Z</time>
            </trkpt>
            <trkpt lon="101.019317" lat="13.229630">
                <ele>51.087158</ele>
                <time>2012-05-27T04:42:45Z</time>
            </trkpt>
            <trkpt lon="101.018277" lat="13.229132">
                <ele>48.683960</ele>
                <time>2012-05-27T04:43:09Z</time>
            </trkpt>
            <trkpt lon="101.018547" lat="13.228637">
                <ele>46.761231</ele>
                <time>2012-05-27T04:43:26Z</time>
            </trkpt>
            <trkpt lon="101.018725" lat="13.227381">
                <ele>46.761231</ele>
                <time>2012-05-27T04:43:56Z</time>
            </trkpt>
            <trkpt lon="101.018614" lat="13.226328">
                <ele>44.838623</ele>
                <time>2012-05-27T04:44:21Z</time>
            </trkpt>
            <trkpt lon="101.019215" lat="13.225023">
                <ele>46.280640</ele>
                <time>2012-05-27T04:45:01Z</time>
            </trkpt>
            <trkpt lon="101.019705" lat="13.224571">
                <ele>48.203369</ele>
                <time>2012-05-27T04:45:20Z</time>
            </trkpt>
            <trkpt lon="101.022575" lat="13.224306">
                <ele>57.335815</ele>
                <time>2012-05-27T04:46:38Z</time>
            </trkpt>
            <trkpt lon="101.024287" lat="13.224047">
                <ele>61.661743</ele>
                <time>2012-05-27T04:47:28Z</time>
            </trkpt>
            <trkpt lon="101.024703" lat="13.224248">
                <ele>62.622925</ele>
                <time>2012-05-27T04:47:43Z</time>
            </trkpt>
            <trkpt lon="101.025155" lat="13.224768">
                <ele>62.622925</ele>
                <time>2012-05-27T04:48:04Z</time>
            </trkpt>
            <trkpt lon="101.025283" lat="13.224788">
                <ele>63.103638</ele>
                <time>2012-05-27T04:48:08Z</time>
            </trkpt>
            <trkpt lon="101.026872" lat="13.224342">
                <ele>67.910278</ele>
                <time>2012-05-27T04:49:09Z</time>
            </trkpt>
            <trkpt lon="101.027628" lat="13.223838">
                <ele>67.910278</ele>
                <time>2012-05-27T04:49:39Z</time>
            </trkpt>
            <trkpt lon="101.026850" lat="13.220933">
                <ele>62.622925</ele>
                <time>2012-05-27T04:50:42Z</time>
            </trkpt>
            <trkpt lon="101.026950" lat="13.218841">
                <ele>59.258423</ele>
                <time>2012-05-27T04:52:46Z</time>
            </trkpt>
            <trkpt lon="101.026911" lat="13.217204">
                <ele>54.932373</ele>
                <time>2012-05-27T04:53:35Z</time>
            </trkpt>
            <trkpt lon="101.027087" lat="13.217337">
                <ele>53.490479</ele>
                <time>2012-05-27T04:53:48Z</time>
            </trkpt>
            <trkpt lon="101.028177" lat="13.217291">
                <ele>53.490479</ele>
                <time>2012-05-27T04:54:27Z</time>
            </trkpt>
            <trkpt lon="101.027045" lat="13.217339">
                <ele>54.932373</ele>
                <time>2012-05-27T04:55:11Z</time>
            </trkpt>
            <trkpt lon="101.026899" lat="13.217107">
                <ele>55.413086</ele>
                <time>2012-05-27T04:55:21Z</time>
            </trkpt>
            <trkpt lon="101.026644" lat="13.216263">
                <ele>53.971191</ele>
                <time>2012-05-27T04:55:39Z</time>
            </trkpt>
            <trkpt lon="101.028692" lat="13.216370">
                <ele>52.529175</ele>
                <time>2012-05-27T04:56:23Z</time>
            </trkpt>
            <trkpt lon="101.030902" lat="13.217160">
                <ele>59.258423</ele>
                <time>2012-05-27T04:57:36Z</time>
            </trkpt>
            <trkpt lon="101.031327" lat="13.215981">
                <ele>60.700317</ele>
                <time>2012-05-27T04:58:14Z</time>
            </trkpt>
            <trkpt lon="101.032033" lat="13.216100">
                <ele>61.181030</ele>
                <time>2012-05-27T04:58:34Z</time>
            </trkpt>
            <trkpt lon="101.032948" lat="13.216040">
                <ele>60.219727</ele>
                <time>2012-05-27T04:58:56Z</time>
            </trkpt>
            <trkpt lon="101.033706" lat="13.215412">
                <ele>56.855103</ele>
                <time>2012-05-27T04:59:16Z</time>
            </trkpt>
            <trkpt lon="101.035413" lat="13.215098">
                <ele>61.181030</ele>
                <time>2012-05-27T04:59:53Z</time>
            </trkpt>
            <trkpt lon="101.035498" lat="13.215080">
                <ele>61.181030</ele>
                <time>2012-05-27T04:59:55Z</time>
            </trkpt>
            <trkpt lon="101.035644" lat="13.214910">
                <ele>61.181030</ele>
                <time>2012-05-27T05:00:01Z</time>
            </trkpt>
            <trkpt lon="101.035677" lat="13.214381">
                <ele>61.181030</ele>
                <time>2012-05-27T05:00:13Z</time>
            </trkpt>
            <trkpt lon="101.035787" lat="13.214191">
                <ele>60.700317</ele>
                <time>2012-05-27T05:00:18Z</time>
            </trkpt>
            <trkpt lon="101.036384" lat="13.213851">
                <ele>60.700317</ele>
                <time>2012-05-27T05:00:34Z</time>
            </trkpt>
            <trkpt lon="101.036606" lat="13.213876">
                <ele>60.700317</ele>
                <time>2012-05-27T05:00:39Z</time>
            </trkpt>
            <trkpt lon="101.037110" lat="13.214043">
                <ele>58.777710</ele>
                <time>2012-05-27T05:00:51Z</time>
            </trkpt>
            <trkpt lon="101.037795" lat="13.214605">
                <ele>58.777710</ele>
                <time>2012-05-27T05:01:12Z</time>
            </trkpt>
            <trkpt lon="101.038382" lat="13.214699">
                <ele>56.855103</ele>
                <time>2012-05-27T05:01:26Z</time>
            </trkpt>
            <trkpt lon="101.039321" lat="13.215200">
                <ele>59.258423</ele>
                <time>2012-05-27T05:01:53Z</time>
            </trkpt>
            <trkpt lon="101.039377" lat="13.215213">
                <ele>59.258423</ele>
                <time>2012-05-27T05:01:55Z</time>
            </trkpt>
            <trkpt lon="101.039537" lat="13.215149">
                <ele>58.777710</ele>
                <time>2012-05-27T05:02:00Z</time>
            </trkpt>
            <trkpt lon="101.039589" lat="13.214948">
                <ele>58.777710</ele>
                <time>2012-05-27T05:02:06Z</time>
            </trkpt>
            <trkpt lon="101.039883" lat="13.214879">
                <ele>57.816528</ele>
                <time>2012-05-27T05:02:13Z</time>
            </trkpt>
            <trkpt lon="101.040334" lat="13.214954">
                <ele>57.816528</ele>
                <time>2012-05-27T05:02:23Z</time>
            </trkpt>
            <trkpt lon="101.040594" lat="13.215323">
                <ele>58.297119</ele>
                <time>2012-05-27T05:02:34Z</time>
            </trkpt>
            <trkpt lon="101.040442" lat="13.215537">
                <ele>58.777710</ele>
                <time>2012-05-27T05:02:41Z</time>
            </trkpt>
            <trkpt lon="101.039969" lat="13.215717">
                <ele>59.739136</ele>
                <time>2012-05-27T05:02:55Z</time>
            </trkpt>
            <trkpt lon="101.039745" lat="13.215973">
                <ele>62.622925</ele>
                <time>2012-05-27T05:03:10Z</time>
            </trkpt>
            <trkpt lon="101.039699" lat="13.216745">
                <ele>63.103638</ele>
                <time>2012-05-27T05:03:35Z</time>
            </trkpt>
            <trkpt lon="101.039260" lat="13.217558">
                <ele>65.026367</ele>
                <time>2012-05-27T05:04:05Z</time>
            </trkpt>
            <trkpt lon="101.038603" lat="13.218087">
                <ele>67.429688</ele>
                <time>2012-05-27T05:04:43Z</time>
            </trkpt>
            <trkpt lon="101.038697" lat="13.218322">
                <ele>69.352295</ele>
                <time>2012-05-27T05:05:01Z</time>
            </trkpt>
            <trkpt lon="101.039061" lat="13.218322">
                <ele>73.197632</ele>
                <time>2012-05-27T05:05:37Z</time>
            </trkpt>
            <trkpt lon="101.039171" lat="13.218529">
                <ele>79.926636</ele>
                <time>2012-05-27T05:06:12Z</time>
            </trkpt>
            <trkpt lon="101.039176" lat="13.218756">
                <ele>78.004028</ele>
                <time>2012-05-27T05:06:46Z</time>
            </trkpt>
            <trkpt lon="101.038683" lat="13.219022">
                <ele>79.446045</ele>
                <time>2012-05-27T05:07:16Z</time>
            </trkpt>
            <trkpt lon="101.038912" lat="13.219838">
                <ele>72.716919</ele>
                <time>2012-05-27T05:07:55Z</time>
            </trkpt>
            <trkpt lon="101.039024" lat="13.221893">
                <ele>77.523438</ele>
                <time>2012-05-27T05:09:29Z</time>
            </trkpt>
            <trkpt lon="101.039116" lat="13.222193">
                <ele>75.120239</ele>
                <time>2012-05-27T05:09:40Z</time>
            </trkpt>
            <trkpt lon="101.040301" lat="13.223382">
                <ele>82.330078</ele>
                <time>2012-05-27T05:10:45Z</time>
            </trkpt>
            <trkpt lon="101.040743" lat="13.223565">
                <ele>83.291382</ele>
                <time>2012-05-27T05:11:02Z</time>
            </trkpt>
            <trkpt lon="101.041207" lat="13.221468">
                <ele>73.678223</ele>
                <time>2012-05-27T05:11:39Z</time>
            </trkpt>
            <trkpt lon="101.042028" lat="13.219405">
                <ele>74.158813</ele>
                <time>2012-05-27T05:12:18Z</time>
            </trkpt>
            <trkpt lon="101.042651" lat="13.218748">
                <ele>72.236206</ele>
                <time>2012-05-27T05:12:33Z</time>
            </trkpt>
            <trkpt lon="101.042666" lat="13.218309">
                <ele>70.794190</ele>
                <time>2012-05-27T05:12:41Z</time>
            </trkpt>
            <trkpt lon="101.041239" lat="13.216353">
                <ele>66.948975</ele>
                <time>2012-05-27T05:13:20Z</time>
            </trkpt>
            <trkpt lon="101.041110" lat="13.214853">
                <ele>63.584351</ele>
                <time>2012-05-27T05:13:45Z</time>
            </trkpt>
            <trkpt lon="101.040283" lat="13.213923">
                <ele>61.661743</ele>
                <time>2012-05-27T05:14:07Z</time>
            </trkpt>
            <trkpt lon="101.040210" lat="13.213631">
                <ele>61.661743</ele>
                <time>2012-05-27T05:14:13Z</time>
            </trkpt>
            <trkpt lon="101.040513" lat="13.213059">
                <ele>61.181030</ele>
                <time>2012-05-27T05:14:26Z</time>
            </trkpt>
            <trkpt lon="101.041047" lat="13.212770">
                <ele>64.065063</ele>
                <time>2012-05-27T05:14:42Z</time>
            </trkpt>
            <trkpt lon="101.041173" lat="13.212821">
                <ele>64.065063</ele>
                <time>2012-05-27T05:14:46Z</time>
            </trkpt>
            <trkpt lon="101.045893" lat="13.215226">
                <ele>69.832886</ele>
                <time>2012-05-27T05:16:34Z</time>
            </trkpt>
            <trkpt lon="101.048556" lat="13.215361">
                <ele>80.407471</ele>
                <time>2012-05-27T05:17:54Z</time>
            </trkpt>
            <trkpt lon="101.053018" lat="13.215120">
                <ele>93.865845</ele>
                <time>2012-05-27T05:20:43Z</time>
            </trkpt>
        </trkseg>
    </trk>
</gpx>